PWSweather.com
Personal Weather Stations
Station Observations
KCOBLACK1
Chalet Park, Black Hawk, CO 80422

Chalet ParkBlack Hawk, CO 80422

Lat: 39.8294, Lon: -105.48

Elevation: 9370

Station Type: Vantage Pro2

http://www.oscaranddeb.com/weather

Latest ConditionsUpdated 9:35:05 PM MDT Wednesday, Jul 1, 2015
Currently Today's Max Today's Min Today's Average
Temperature 55.8°F13.2°C 71.2°F21.8°C 55.7°F13.2°C 61.8°F16.6°C
Dew Point 49.7°F9.8°C 55.3°F12.9°C 40.3°F4.6°C 47.2°F8.4°C
Winds Calm Calm 10.0 mph N16.1 kmh N - 1.9 mph 3.1 kmh
Wind Gusts -- 15.0 mph24.1 kmh - -
Humidity 80% 90% 44% 60%
Pressure 29.75 in1007.5 mb 29.75 in1007.5 mb 29.68 in1005.1 mb -
Precipitation - 0.24 in6.1 mm - -
Hour Temp Dew Point Humidity Winds Wind Gusts Pressure Precip Precip Rate Daily Precip Total
09:35 PM 55.8°F13.2°C 49.7°F9.8°C 80% Calm Calm -- 29.75 in1007.5 mb 0.00 in0.0 mm 0.00 in0.0 mm 0.24 in6.1 mm
09:30 PM 56.0°F13.3°C 49.9°F9.9°C 80% Calm Calm -- 29.74 in1007.1 mb 0.00 in0.0 mm 0.00 in0.0 mm 0.24 in6.1 mm
09:25 PM 56.2°F13.4°C 49.7°F9.8°C 79% Calm Calm -- 29.74 in1007.1 mb 0.00 in0.0 mm 0.00 in0.0 mm 0.24 in6.1 mm
09:20 PM 56.3°F13.5°C 49.5°F9.7°C 78% Calm Calm -- 29.74 in1007.1 mb 0.00 in0.0 mm 0.00 in0.0 mm 0.24 in6.1 mm
09:15 PM 56.2°F13.4°C 49.4°F9.7°C 78% Calm Calm 2.0 mph3.2 kmh 29.73 in1006.8 mb 0.00 in0.0 mm 0.00 in0.0 mm 0.24 in6.1 mm
09:10 PM 56.3°F13.5°C 49.1°F9.5°C 77% 2.0 mph SE3.2 kmh SE 2.0 mph3.2 kmh 29.73 in1006.8 mb 0.00 in0.0 mm 0.00 in0.0 mm 0.24 in6.1 mm
09:05 PM 56.6°F13.7°C 49.8°F9.9°C 78% 1.0 mph SE1.6 kmh SE 2.0 mph3.2 kmh 29.73 in1006.8 mb 0.00 in0.0 mm 0.00 in0.0 mm 0.24 in6.1 mm
09:00 PM 56.8°F13.8°C 49.3°F9.6°C 76% Calm Calm -- 29.72 in1006.4 mb 0.00 in0.0 mm 0.00 in0.0 mm 0.24 in6.1 mm
08:55 PM 57.1°F13.9°C 48.8°F9.3°C 74% Calm Calm -- 29.72 in1006.4 mb 0.00 in0.0 mm 0.00 in0.0 mm 0.24 in6.1 mm
08:50 PM 57.3°F14.1°C 49.0°F9.4°C 74% Calm Calm -- 29.73 in1006.8 mb 0.00 in0.0 mm 0.00 in0.0 mm 0.24 in6.1 mm
08:45 PM 57.6°F14.2°C 50.0°F10.0°C 76% Calm Calm -- 29.72 in1006.4 mb 0.00 in0.0 mm 0.00 in0.0 mm 0.24 in6.1 mm
08:40 PM 58.0°F14.4°C 51.1°F10.6°C 78% Calm Calm -- 29.72 in1006.4 mb 0.00 in0.0 mm 0.00 in0.0 mm 0.24 in6.1 mm
08:35 PM 58.2°F14.6°C 51.3°F10.7°C 78% Calm Calm -- 29.72 in1006.4 mb 0.00 in0.0 mm 0.00 in0.0 mm 0.24 in6.1 mm
08:30 PM 58.5°F14.7°C 51.6°F10.9°C 78% Calm Calm -- 29.72 in1006.4 mb 0.00 in0.0 mm 0.00 in0.0 mm 0.24 in6.1 mm
08:25 PM 58.8°F14.9°C 51.9°F11.1°C 78% Calm Calm -- 29.72 in1006.4 mb 0.00 in0.0 mm 0.00 in0.0 mm 0.24 in6.1 mm
08:20 PM 59.0°F15.0°C 51.7°F10.9°C 77% Calm Calm -- 29.72 in1006.4 mb 0.00 in0.0 mm 0.00 in0.0 mm 0.24 in6.1 mm
08:15 PM 59.5°F15.3°C 51.9°F11.1°C 76% Calm Calm -- 29.72 in1006.4 mb 0.00 in0.0 mm 0.00 in0.0 mm 0.24 in6.1 mm
08:10 PM 60.0°F15.6°C 52.0°F11.1°C 75% Calm Calm -- 29.72 in1006.4 mb 0.00 in0.0 mm 0.00 in0.0 mm 0.24 in6.1 mm
08:05 PM 60.6°F15.9°C 52.2°F11.2°C 74% Calm Calm -- 29.72 in1006.4 mb 0.00 in0.0 mm 0.00 in0.0 mm 0.24 in6.1 mm
08:00 PM 61.3°F16.3°C 52.9°F11.6°C 74% Calm Calm -- 29.72 in1006.4 mb 0.00 in0.0 mm 0.00 in0.0 mm 0.24 in6.1 mm
07:55 PM 61.8°F16.6°C 53.4°F11.9°C 74% Calm Calm -- 29.73 in1006.8 mb 0.00 in0.0 mm 0.00 in0.0 mm 0.24 in6.1 mm
07:50 PM 62.3°F16.8°C 53.5°F11.9°C 73% Calm Calm -- 29.73 in1006.8 mb 0.00 in0.0 mm 0.00 in0.0 mm 0.24 in6.1 mm
07:45 PM 62.9°F17.2°C 53.3°F11.8°C 71% Calm Calm -- 29.73 in1006.8 mb 0.00 in0.0 mm 0.00 in0.0 mm 0.24 in6.1 mm
07:40 PM 63.2°F17.3°C 53.2°F11.8°C 70% Calm Calm -- 29.73 in1006.8 mb 0.00 in0.0 mm 0.00 in0.0 mm 0.24 in6.1 mm
07:35 PM 63.4°F17.4°C 53.0°F11.7°C 69% Calm Calm -- 29.73 in1006.8 mb 0.00 in0.0 mm 0.00 in0.0 mm 0.24 in6.1 mm
07:30 PM 63.5°F17.5°C 52.7°F11.5°C 68% Calm Calm -- 29.74 in1007.1 mb 0.00 in0.0 mm 0.00 in0.0 mm 0.24 in6.1 mm
07:25 PM 63.2°F17.3°C 52.4°F11.3°C 68% Calm Calm -- 29.74 in1007.1 mb 0.00 in0.0 mm 0.00 in0.0 mm 0.24 in6.1 mm
07:20 PM 62.7°F17.1°C 49.4°F9.7°C 62% Calm Calm -- 29.74 in1007.1 mb 0.00 in0.0 mm 0.00 in0.0 mm 0.24 in6.1 mm
07:15 PM 62.6°F17.0°C 49.3°F9.6°C 62% Calm Calm -- 29.74 in1007.1 mb 0.00 in0.0 mm 0.00 in0.0 mm 0.24 in6.1 mm
07:10 PM 62.9°F17.2°C 47.8°F8.8°C 58% Calm Calm -- 29.73 in1006.8 mb 0.00 in0.0 mm 0.00 in0.0 mm 0.24 in6.1 mm
07:05 PM 63.4°F17.4°C 48.8°F9.3°C 59% Calm Calm 3.0 mph4.8 kmh 29.73 in1006.8 mb 0.00 in0.0 mm 0.00 in0.0 mm 0.24 in6.1 mm
07:00 PM 64.1°F17.8°C 48.0°F8.9°C 56% 2.0 mph SE3.2 kmh SE 6.0 mph9.7 kmh 29.73 in1006.8 mb 0.00 in0.0 mm 0.00 in0.0 mm 0.24 in6.1 mm
06:55 PM 64.4°F18.0°C 49.7°F9.8°C 59% Calm Calm 2.0 mph3.2 kmh 29.73 in1006.8 mb 0.00 in0.0 mm 0.00 in0.0 mm 0.24 in6.1 mm
06:50 PM 65.0°F18.3°C 48.4°F9.1°C 55% 1.0 mph SSE1.6 kmh SSE 2.0 mph3.2 kmh 29.73 in1006.8 mb 0.00 in0.0 mm 0.00 in0.0 mm 0.24 in6.1 mm
06:45 PM 66.3°F19.1°C 49.1°F9.5°C 54% Calm Calm 3.0 mph4.8 kmh 29.73 in1006.8 mb 0.00 in0.0 mm 0.00 in0.0 mm 0.24 in6.1 mm
06:40 PM 66.1°F18.9°C 49.9°F9.9°C 56% 1.0 mph SSE1.6 kmh SSE 2.0 mph3.2 kmh 29.73 in1006.8 mb 0.00 in0.0 mm 0.00 in0.0 mm 0.24 in6.1 mm
06:35 PM 65.2°F18.4°C 51.4°F10.8°C 61% Calm Calm 2.0 mph3.2 kmh 29.73 in1006.8 mb 0.00 in0.0 mm 0.00 in0.0 mm 0.24 in6.1 mm
06:30 PM 64.4°F18.0°C 49.7°F9.8°C 59% Calm Calm 1.0 mph1.6 kmh 29.73 in1006.8 mb 0.00 in0.0 mm 0.00 in0.0 mm 0.24 in6.1 mm
06:25 PM 63.7°F17.6°C 49.0°F9.4°C 59% Calm Calm 1.0 mph1.6 kmh 29.72 in1006.4 mb 0.00 in0.0 mm 0.00 in0.0 mm 0.24 in6.1 mm
06:20 PM 63.6°F17.6°C 49.4°F9.7°C 60% Calm Calm 7.0 mph11.3 kmh 29.72 in1006.4 mb 0.00 in0.0 mm 0.00 in0.0 mm 0.24 in6.1 mm
06:15 PM 63.9°F17.7°C 48.8°F9.3°C 58% Calm Calm 4.0 mph6.4 kmh 29.72 in1006.4 mb 0.00 in0.0 mm 0.00 in0.0 mm 0.24 in6.1 mm
06:10 PM 63.8°F17.7°C 48.2°F9.0°C 57% 2.0 mph SSE3.2 kmh SSE 7.0 mph11.3 kmh 29.72 in1006.4 mb 0.00 in0.0 mm 0.00 in0.0 mm 0.24 in6.1 mm
06:05 PM 63.2°F17.3°C 50.3°F10.2°C 63% Calm Calm -- 29.72 in1006.4 mb 0.00 in0.0 mm 0.00 in0.0 mm 0.24 in6.1 mm
06:00 PM 62.3°F16.8°C 49.1°F9.5°C 62% Calm Calm 1.0 mph1.6 kmh 29.73 in1006.8 mb 0.00 in0.0 mm 0.00 in0.0 mm 0.24 in6.1 mm
05:55 PM 61.6°F16.4°C 49.2°F9.6°C 64% Calm Calm 2.0 mph3.2 kmh 29.73 in1006.8 mb 0.00 in0.0 mm 0.00 in0.0 mm 0.24 in6.1 mm
05:50 PM 61.2°F16.2°C 49.3°F9.6°C 65% Calm Calm 3.0 mph4.8 kmh 29.73 in1006.8 mb 0.00 in0.0 mm 0.00 in0.0 mm 0.24 in6.1 mm
05:45 PM 61.2°F16.2°C 48.4°F9.1°C 63% Calm Calm 2.0 mph3.2 kmh 29.73 in1006.8 mb 0.00 in0.0 mm 0.00 in0.0 mm 0.24 in6.1 mm
05:40 PM 61.4°F16.3°C 49.5°F9.7°C 65% 2.0 mph SW3.2 kmh SW 3.0 mph4.8 kmh 29.74 in1007.1 mb 0.00 in0.0 mm 0.00 in0.0 mm 0.24 in6.1 mm
05:35 PM 61.9°F16.6°C 48.7°F9.3°C 62% Calm Calm 4.0 mph6.4 kmh 29.74 in1007.1 mb 0.00 in0.0 mm 0.00 in0.0 mm 0.24 in6.1 mm
05:30 PM 62.4°F16.9°C 50.0°F10.0°C 64% Calm Calm 8.0 mph12.9 kmh 29.74 in1007.1 mb 0.00 in0.0 mm 0.00 in0.0 mm 0.24 in6.1 mm
05:25 PM 62.9°F17.2°C 50.1°F10.1°C 63% 4.0 mph SW6.4 kmh SW 6.0 mph9.7 kmh 29.73 in1006.8 mb 0.00 in0.0 mm 0.00 in0.0 mm 0.24 in6.1 mm
05:20 PM 62.5°F16.9°C 49.7°F9.8°C 63% 2.0 mph SW3.2 kmh SW 3.0 mph4.8 kmh 29.73 in1006.8 mb 0.00 in0.0 mm 0.00 in0.0 mm 0.24 in6.1 mm
05:15 PM 62.2°F16.8°C 48.1°F8.9°C 60% Calm Calm -- 29.73 in1006.8 mb 0.00 in0.0 mm 0.00 in0.0 mm 0.24 in6.1 mm
05:10 PM 62.4°F16.9°C 50.8°F10.4°C 66% Calm Calm -- 29.74 in1007.1 mb 0.00 in0.0 mm 0.00 in0.0 mm 0.24 in6.1 mm
05:05 PM 62.4°F16.9°C 48.7°F9.3°C 61% Calm Calm -- 29.74 in1007.1 mb 0.00 in0.0 mm 0.00 in0.0 mm 0.24 in6.1 mm
05:00 PM 62.3°F16.8°C 48.2°F9.0°C 60% Calm Calm 2.0 mph3.2 kmh 29.74 in1007.1 mb 0.00 in0.0 mm 0.00 in0.0 mm 0.24 in6.1 mm
04:55 PM 62.2°F16.8°C 49.4°F9.7°C 63% Calm Calm 3.0 mph4.8 kmh 29.74 in1007.1 mb 0.00 in0.0 mm 0.00 in0.0 mm 0.24 in6.1 mm
04:50 PM 62.1°F16.7°C 50.6°F10.3°C 66% 1.0 mph SSE1.6 kmh SSE 8.0 mph12.9 kmh 29.74 in1007.1 mb 0.00 in0.0 mm 0.00 in0.0 mm 0.24 in6.1 mm
04:45 PM 62.0°F16.7°C 51.7°F10.9°C 69% 3.0 mph ESE4.8 kmh ESE 4.0 mph6.4 kmh 29.74 in1007.1 mb 0.00 in0.0 mm 0.00 in0.0 mm 0.24 in6.1 mm
04:40 PM 61.9°F16.6°C 51.6°F10.9°C 69% 1.0 mph E1.6 kmh E 7.0 mph11.3 kmh 29.73 in1006.8 mb 0.00 in0.0 mm 0.00 in0.0 mm 0.24 in6.1 mm
04:35 PM 61.7°F16.5°C 51.8°F11.0°C 70% 7.0 mph E11.3 kmh E 9.0 mph14.5 kmh 29.73 in1006.8 mb 0.00 in0.0 mm 0.00 in0.0 mm 0.24 in6.1 mm
04:30 PM 62.0°F16.7°C 51.3°F10.7°C 68% 3.0 mph E4.8 kmh E 8.0 mph12.9 kmh 29.73 in1006.8 mb 0.00 in0.0 mm 0.00 in0.0 mm 0.24 in6.1 mm
04:25 PM 61.6°F16.4°C 52.4°F11.3°C 72% 2.0 mph E3.2 kmh E 8.0 mph12.9 kmh 29.73 in1006.8 mb 0.00 in0.0 mm 0.00 in0.0 mm 0.24 in6.1 mm
04:20 PM 60.9°F16.1°C 51.8°F11.0°C 72% 2.0 mph ENE3.2 kmh ENE 12.0 mph19.3 kmh 29.73 in1006.8 mb 0.00 in0.0 mm 0.00 in0.0 mm 0.24 in6.1 mm
04:15 PM 60.0°F15.6°C 53.1°F11.7°C 78% 3.0 mph E4.8 kmh E 8.0 mph12.9 kmh 29.72 in1006.4 mb 0.00 in0.0 mm 0.00 in0.0 mm 0.24 in6.1 mm
04:10 PM 59.5°F15.3°C 51.9°F11.1°C 76% Calm Calm 13.0 mph20.9 kmh 29.73 in1006.8 mb 0.00 in0.0 mm 0.00 in0.0 mm 0.24 in6.1 mm
04:05 PM 59.5°F15.3°C 52.6°F11.4°C 78% 2.0 mph SE3.2 kmh SE 9.0 mph14.5 kmh 29.73 in1006.8 mb 0.00 in0.0 mm 0.00 in0.0 mm 0.24 in6.1 mm
04:00 PM 59.5°F15.3°C 53.6°F12.0°C 81% 9.0 mph E14.5 kmh E 12.0 mph19.3 kmh 29.74 in1007.1 mb 0.00 in0.0 mm 0.00 in0.0 mm 0.24 in6.1 mm
03:55 PM 59.6°F15.3°C 54.4°F12.4°C 83% 6.0 mph NE9.7 kmh NE 13.0 mph20.9 kmh 29.74 in1007.1 mb 0.00 in0.0 mm 0.00 in0.0 mm 0.24 in6.1 mm
03:50 PM 59.6°F15.3°C 55.0°F12.8°C 85% 5.0 mph NE8.0 kmh NE 11.0 mph17.7 kmh 29.74 in1007.1 mb 0.00 in0.0 mm 0.00 in0.0 mm 0.24 in6.1 mm
03:45 PM 59.0°F15.0°C 52.8°F11.6°C 80% 2.0 mph NW3.2 kmh NW 2.0 mph3.2 kmh 29.74 in1007.1 mb 0.00 in0.0 mm 0.00 in0.0 mm 0.24 in6.1 mm
03:40 PM 58.7°F14.8°C 52.5°F11.4°C 80% Calm Calm 4.0 mph6.4 kmh 29.74 in1007.1 mb 0.00 in0.0 mm 0.00 in0.0 mm 0.24 in6.1 mm
03:35 PM 58.7°F14.8°C 52.5°F11.4°C 80% 3.0 mph NW4.8 kmh NW 4.0 mph6.4 kmh 29.73 in1006.8 mb 0.00 in0.0 mm 0.00 in0.0 mm 0.24 in6.1 mm
03:30 PM 58.4°F14.7°C 53.9°F12.2°C 85% 2.0 mph SW3.2 kmh SW 4.0 mph6.4 kmh 29.72 in1006.4 mb 0.00 in0.0 mm 0.00 in0.0 mm 0.24 in6.1 mm
03:25 PM 57.7°F14.3°C 53.5°F11.9°C 86% 3.0 mph SW4.8 kmh SW 5.0 mph8.0 kmh 29.72 in1006.4 mb 0.00 in0.0 mm 0.00 in0.0 mm 0.24 in6.1 mm
03:20 PM 57.5°F14.2°C 53.6°F12.0°C 87% 2.0 mph SSW3.2 kmh SSW 8.0 mph12.9 kmh 29.73 in1006.8 mb 0.00 in0.0 mm 0.00 in0.0 mm 0.24 in6.1 mm
03:15 PM 57.2°F14.0°C 53.6°F12.0°C 88% 5.0 mph S8.0 kmh S 8.0 mph12.9 kmh 29.73 in1006.8 mb 0.00 in0.0 mm 0.00 in0.0 mm 0.24 in6.1 mm
03:10 PM 57.0°F13.9°C 53.4°F11.9°C 88% 4.0 mph SW6.4 kmh SW 8.0 mph12.9 kmh 29.74 in1007.1 mb 0.00 in0.0 mm 0.00 in0.0 mm 0.24 in6.1 mm
03:05 PM 57.1°F13.9°C 53.2°F11.8°C 87% 4.0 mph SW6.4 kmh SW 9.0 mph14.5 kmh 29.74 in1007.1 mb 0.00 in0.0 mm 0.00 in0.0 mm 0.24 in6.1 mm
03:00 PM 57.5°F14.2°C 53.6°F12.0°C 87% 5.0 mph SW8.0 kmh SW 9.0 mph14.5 kmh 29.73 in1006.8 mb 0.05 in1.3 mm 0.00 in0.0 mm 0.24 in6.1 mm
02:55 PM 57.8°F14.3°C 53.9°F12.2°C 87% 6.0 mph S9.7 kmh S 8.0 mph12.9 kmh 29.73 in1006.8 mb 0.06 in1.5 mm 0.00 in0.0 mm 0.24 in6.1 mm
02:50 PM 58.2°F14.6°C 54.0°F12.2°C 86% 2.0 mph SSW3.2 kmh SSW 9.0 mph14.5 kmh 29.73 in1006.8 mb 0.06 in1.5 mm 0.00 in0.0 mm 0.24 in6.1 mm
02:45 PM 59.0°F15.0°C 54.4°F12.4°C 85% 4.0 mph SW6.4 kmh SW 6.0 mph9.7 kmh 29.73 in1006.8 mb 0.06 in1.5 mm 0.00 in0.0 mm 0.24 in6.1 mm
02:40 PM 59.1°F15.1°C 55.2°F12.9°C 87% Calm Calm -- 29.72 in1006.4 mb 0.06 in1.5 mm 0.00 in0.0 mm 0.24 in6.1 mm
02:35 PM 58.3°F14.6°C 55.3°F12.9°C 90% Calm Calm -- 29.72 in1006.4 mb 0.06 in1.5 mm 0.00 in0.0 mm 0.24 in6.1 mm
02:30 PM 57.0°F13.9°C 53.7°F12.1°C 89% Calm Calm -- 29.72 in1006.4 mb 0.06 in1.5 mm 0.00 in0.0 mm 0.24 in6.1 mm
02:25 PM 56.3°F13.5°C 51.8°F11.0°C 85% Calm Calm 5.0 mph8.0 kmh 29.72 in1006.4 mb 0.06 in1.5 mm 0.00 in0.0 mm 0.24 in6.1 mm
02:20 PM 56.0°F13.3°C 51.5°F10.8°C 85% 4.0 mph ESE6.4 kmh ESE 6.0 mph9.7 kmh 29.72 in1006.4 mb 0.07 in1.8 mm 0.00 in0.0 mm 0.24 in6.1 mm
02:15 PM 56.1°F13.4°C 51.6°F10.9°C 85% 2.0 mph SE3.2 kmh SE 5.0 mph8.0 kmh 29.72 in1006.4 mb 0.17 in4.3 mm 0.00 in0.0 mm 0.24 in6.1 mm
02:10 PM 56.3°F13.5°C 51.8°F11.0°C 85% 1.0 mph ESE1.6 kmh ESE 8.0 mph12.9 kmh 29.73 in1006.8 mb 0.23 in5.8 mm 0.00 in0.0 mm 0.24 in6.1 mm
02:05 PM 56.8°F13.8°C 51.6°F10.9°C 83% 4.0 mph E6.4 kmh E 8.0 mph12.9 kmh 29.73 in1006.8 mb 0.24 in6.1 mm 0.60 in15.2 mm 0.24 in6.1 mm
02:00 PM 57.4°F14.1°C 53.2°F11.8°C 86% 3.0 mph ESE4.8 kmh ESE 3.0 mph4.8 kmh 29.74 in1007.1 mb 0.19 in4.8 mm 0.01 in0.3 mm 0.19 in4.8 mm
01:55 PM 57.5°F14.2°C 53.0°F11.7°C 85% Calm Calm 3.0 mph4.8 kmh 29.74 in1007.1 mb 0.18 in4.6 mm 0.00 in0.0 mm 0.18 in4.6 mm
01:50 PM 57.6°F14.2°C 52.7°F11.5°C 84% 2.0 mph E3.2 kmh E 7.0 mph11.3 kmh 29.72 in1006.4 mb 0.18 in4.6 mm 0.00 in0.0 mm 0.18 in4.6 mm
01:45 PM 57.7°F14.3°C 52.5°F11.4°C 83% Calm Calm 8.0 mph12.9 kmh 29.72 in1006.4 mb 0.18 in4.6 mm 0.00 in0.0 mm 0.18 in4.6 mm
01:40 PM 57.9°F14.4°C 52.1°F11.2°C 81% 1.0 mph E1.6 kmh E 9.0 mph14.5 kmh 29.72 in1006.4 mb 0.18 in4.6 mm 0.00 in0.0 mm 0.18 in4.6 mm
01:35 PM 58.3°F14.6°C 52.1°F11.2°C 80% 4.0 mph E6.4 kmh E 8.0 mph12.9 kmh 29.72 in1006.4 mb 0.18 in4.6 mm 0.00 in0.0 mm 0.18 in4.6 mm
01:30 PM 59.1°F15.1°C 51.5°F10.8°C 76% 4.0 mph E6.4 kmh E 9.0 mph14.5 kmh 29.72 in1006.4 mb 0.18 in4.6 mm 0.00 in0.0 mm 0.18 in4.6 mm
01:25 PM 60.8°F16.0°C 52.0°F11.1°C 73% 4.0 mph E6.4 kmh E 10.0 mph16.1 kmh 29.72 in1006.4 mb 0.18 in4.6 mm 0.12 in3.0 mm 0.18 in4.6 mm
01:20 PM 63.3°F17.4°C 52.5°F11.4°C 68% 5.0 mph NE8.0 kmh NE 15.0 mph24.1 kmh 29.72 in1006.4 mb 0.17 in4.3 mm 1.20 in30.5 mm 0.17 in4.3 mm
01:15 PM 65.3°F18.5°C 54.0°F12.2°C 67% 2.0 mph NE3.2 kmh NE 4.0 mph6.4 kmh 29.73 in1006.8 mb 0.07 in1.8 mm 0.72 in18.3 mm 0.09 in2.3 mm
01:10 PM 66.1°F18.9°C 51.3°F10.7°C 59% Calm Calm 6.0 mph9.7 kmh 29.72 in1006.4 mb 0.01 in0.3 mm 0.12 in3.0 mm 0.01 in0.3 mm
01:05 PM 66.6°F19.2°C 50.4°F10.2°C 56% Calm Calm 6.0 mph9.7 kmh 29.71 in1006.1 mb 0.00 in0.0 mm 0.00 in0.0 mm 0.00 in0.0 mm
01:00 PM 67.0°F19.4°C 49.2°F9.6°C 53% Calm Calm 7.0 mph11.3 kmh 29.71 in1006.1 mb 0.00 in0.0 mm 0.00 in0.0 mm 0.00 in0.0 mm
12:55 PM 67.6°F19.8°C 48.8°F9.3°C 51% Calm Calm 8.0 mph12.9 kmh 29.71 in1006.1 mb 0.00 in0.0 mm 0.00 in0.0 mm 0.00 in0.0 mm
12:50 PM 68.4°F20.2°C 48.4°F9.1°C 49% 7.0 mph ESE11.3 kmh ESE 7.0 mph11.3 kmh 29.71 in1006.1 mb 0.00 in0.0 mm 0.00 in0.0 mm 0.00 in0.0 mm
12:45 PM 68.9°F20.5°C 48.3°F9.1°C 48% Calm Calm 9.0 mph14.5 kmh 29.71 in1006.1 mb 0.00 in0.0 mm 0.00 in0.0 mm 0.00 in0.0 mm
12:40 PM 69.6°F20.9°C 49.0°F9.4°C 48% 6.0 mph E9.7 kmh E 9.0 mph14.5 kmh 29.71 in1006.1 mb 0.00 in0.0 mm 0.00 in0.0 mm 0.00 in0.0 mm
12:35 PM 69.9°F21.1°C 48.7°F9.3°C 47% 2.0 mph SE3.2 kmh SE 6.0 mph9.7 kmh 29.71 in1006.1 mb 0.00 in0.0 mm 0.00 in0.0 mm 0.00 in0.0 mm
12:30 PM 70.1°F21.2°C 49.4°F9.7°C 48% Calm Calm 3.0 mph4.8 kmh 29.71 in1006.1 mb 0.00 in0.0 mm 0.00 in0.0 mm 0.00 in0.0 mm
12:25 PM 70.5°F21.4°C 48.7°F9.3°C 46% Calm Calm 5.0 mph8.0 kmh 29.71 in1006.1 mb 0.00 in0.0 mm 0.00 in0.0 mm 0.00 in0.0 mm
12:20 PM 71.0°F21.7°C 48.5°F9.2°C 45% 1.0 mph NE1.6 kmh NE 12.0 mph19.3 kmh 29.71 in1006.1 mb 0.00 in0.0 mm 0.00 in0.0 mm 0.00 in0.0 mm
12:15 PM 71.2°F21.8°C 48.1°F8.9°C 44% Calm Calm 7.0 mph11.3 kmh 29.71 in1006.1 mb 0.00 in0.0 mm 0.00 in0.0 mm 0.00 in0.0 mm
12:10 PM 70.5°F21.4°C 49.8°F9.9°C 48% 2.0 mph SE3.2 kmh SE 9.0 mph14.5 kmh 29.71 in1006.1 mb 0.00 in0.0 mm 0.00 in0.0 mm 0.00 in0.0 mm
12:05 PM 70.2°F21.2°C 47.2°F8.4°C 44% Calm Calm 4.0 mph6.4 kmh 29.71 in1006.1 mb 0.00 in0.0 mm 0.00 in0.0 mm 0.00 in0.0 mm
12:00 PM 70.9°F21.6°C 48.4°F9.1°C 45% Calm Calm 7.0 mph11.3 kmh 29.71 in1006.1 mb 0.00 in0.0 mm 0.00 in0.0 mm 0.00 in0.0 mm
11:55 AM 70.8°F21.6°C 51.2°F10.7°C 50% Calm Calm 9.0 mph14.5 kmh 29.71 in1006.1 mb 0.00 in0.0 mm 0.00 in0.0 mm 0.00 in0.0 mm
11:50 AM 70.1°F21.2°C 49.4°F9.7°C 48% 4.0 mph NE6.4 kmh NE 13.0 mph20.9 kmh 29.71 in1006.1 mb 0.00 in0.0 mm 0.00 in0.0 mm 0.00 in0.0 mm
11:45 AM 69.5°F20.8°C 48.9°F9.4°C 48% 2.0 mph ESE3.2 kmh ESE 7.0 mph11.3 kmh 29.71 in1006.1 mb 0.00 in0.0 mm 0.00 in0.0 mm 0.00 in0.0 mm
11:40 AM 68.9°F20.5°C 48.9°F9.4°C 49% 2.0 mph ESE3.2 kmh ESE 9.0 mph14.5 kmh 29.72 in1006.4 mb 0.00 in0.0 mm 0.00 in0.0 mm 0.00 in0.0 mm
11:35 AM 68.1°F20.1°C 48.7°F9.3°C 50% 7.0 mph E11.3 kmh E 8.0 mph12.9 kmh 29.72 in1006.4 mb 0.00 in0.0 mm 0.00 in0.0 mm 0.00 in0.0 mm
11:30 AM 68.2°F20.1°C 48.2°F9.0°C 49% 1.0 mph E1.6 kmh E 8.0 mph12.9 kmh 29.72 in1006.4 mb 0.00 in0.0 mm 0.00 in0.0 mm 0.00 in0.0 mm
11:25 AM 68.5°F20.3°C 48.5°F9.2°C 49% Calm Calm 7.0 mph11.3 kmh 29.72 in1006.4 mb 0.00 in0.0 mm 0.00 in0.0 mm 0.00 in0.0 mm
11:20 AM 68.6°F20.3°C 49.2°F9.6°C 50% 3.0 mph SE4.8 kmh SE 8.0 mph12.9 kmh 29.72 in1006.4 mb 0.00 in0.0 mm 0.00 in0.0 mm 0.00 in0.0 mm
11:15 AM 68.7°F20.4°C 48.2°F9.0°C 48% 7.0 mph E11.3 kmh E 10.0 mph16.1 kmh 29.72 in1006.4 mb 0.00 in0.0 mm 0.00 in0.0 mm 0.00 in0.0 mm
11:10 AM 69.3°F20.7°C 48.7°F9.3°C 48% 2.0 mph E3.2 kmh E 8.0 mph12.9 kmh 29.72 in1006.4 mb 0.00 in0.0 mm 0.00 in0.0 mm 0.00 in0.0 mm
11:05 AM 69.9°F21.1°C 48.1°F8.9°C 46% 6.0 mph NE9.7 kmh NE 8.0 mph12.9 kmh 29.72 in1006.4 mb 0.00 in0.0 mm 0.00 in0.0 mm 0.00 in0.0 mm
11:00 AM 70.5°F21.4°C 49.2°F9.6°C 47% 7.0 mph E11.3 kmh E 7.0 mph11.3 kmh 29.72 in1006.4 mb 0.00 in0.0 mm 0.00 in0.0 mm 0.00 in0.0 mm
10:55 AM 69.9°F21.1°C 48.7°F9.3°C 47% 4.0 mph ENE6.4 kmh ENE 8.0 mph12.9 kmh 29.72 in1006.4 mb 0.00 in0.0 mm 0.00 in0.0 mm 0.00 in0.0 mm
10:50 AM 69.0°F20.6°C 50.1°F10.1°C 51% Calm Calm 4.0 mph6.4 kmh 29.72 in1006.4 mb 0.00 in0.0 mm 0.00 in0.0 mm 0.00 in0.0 mm
10:45 AM 67.9°F19.9°C 48.0°F8.9°C 49% Calm Calm 5.0 mph8.0 kmh 29.72 in1006.4 mb 0.00 in0.0 mm 0.00 in0.0 mm 0.00 in0.0 mm
10:40 AM 67.3°F19.6°C 46.9°F8.3°C 48% 1.0 mph N1.6 kmh N 4.0 mph6.4 kmh 29.72 in1006.4 mb 0.00 in0.0 mm 0.00 in0.0 mm 0.00 in0.0 mm
10:35 AM 67.4°F19.7°C 48.1°F8.9°C 50% Calm Calm 5.0 mph8.0 kmh 29.72 in1006.4 mb 0.00 in0.0 mm 0.00 in0.0 mm 0.00 in0.0 mm
10:30 AM 67.8°F19.9°C 46.8°F8.2°C 47% Calm Calm 3.0 mph4.8 kmh 29.72 in1006.4 mb 0.00 in0.0 mm 0.00 in0.0 mm 0.00 in0.0 mm
10:25 AM 68.1°F20.1°C 47.6°F8.7°C 48% Calm Calm 9.0 mph14.5 kmh 29.72 in1006.4 mb 0.00 in0.0 mm 0.00 in0.0 mm 0.00 in0.0 mm
10:20 AM 68.6°F20.3°C 48.6°F9.2°C 49% Calm Calm 9.0 mph14.5 kmh 29.72 in1006.4 mb 0.00 in0.0 mm 0.00 in0.0 mm 0.00 in0.0 mm
10:15 AM 69.0°F20.6°C 47.9°F8.8°C 47% 1.0 mph E1.6 kmh E 9.0 mph14.5 kmh 29.72 in1006.4 mb 0.00 in0.0 mm 0.00 in0.0 mm 0.00 in0.0 mm
10:10 AM 69.1°F20.6°C 48.0°F8.9°C 47% 1.0 mph SE1.6 kmh SE 9.0 mph14.5 kmh 29.72 in1006.4 mb 0.00 in0.0 mm 0.00 in0.0 mm 0.00 in0.0 mm
10:05 AM 69.2°F20.7°C 46.9°F8.3°C 45% Calm Calm 5.0 mph8.0 kmh 29.72 in1006.4 mb 0.00 in0.0 mm 0.00 in0.0 mm 0.00 in0.0 mm
10:00 AM 69.1°F20.6°C 47.4°F8.6°C 46% 2.0 mph ENE3.2 kmh ENE 6.0 mph9.7 kmh 29.72 in1006.4 mb 0.00 in0.0 mm 0.00 in0.0 mm 0.00 in0.0 mm
09:55 AM 68.8°F20.4°C 47.1°F8.4°C 46% 1.0 mph NE1.6 kmh NE 5.0 mph8.0 kmh 29.72 in1006.4 mb 0.00 in0.0 mm 0.00 in0.0 mm 0.00 in0.0 mm
09:50 AM 68.4°F20.2°C 47.3°F8.5°C 47% 1.0 mph E1.6 kmh E 4.0 mph6.4 kmh 29.72 in1006.4 mb 0.00 in0.0 mm 0.00 in0.0 mm 0.00 in0.0 mm
09:45 AM 68.0°F20.0°C 46.4°F8.0°C 46% Calm Calm 5.0 mph8.0 kmh 29.72 in1006.4 mb 0.00 in0.0 mm 0.00 in0.0 mm 0.00 in0.0 mm
09:40 AM 67.9°F19.9°C 46.9°F8.3°C 47% Calm Calm 9.0 mph14.5 kmh 29.72 in1006.4 mb 0.00 in0.0 mm 0.00 in0.0 mm 0.00 in0.0 mm
09:35 AM 67.5°F19.7°C 47.6°F8.7°C 49% 1.0 mph NE1.6 kmh NE 4.0 mph6.4 kmh 29.72 in1006.4 mb 0.00 in0.0 mm 0.00 in0.0 mm 0.00 in0.0 mm
09:30 AM 66.9°F19.4°C 47.1°F8.4°C 49% Calm Calm 6.0 mph9.7 kmh 29.72 in1006.4 mb 0.00 in0.0 mm 0.00 in0.0 mm 0.00 in0.0 mm
09:25 AM 66.4°F19.1°C 47.7°F8.7°C 51% 3.0 mph ENE4.8 kmh ENE 6.0 mph9.7 kmh 29.73 in1006.8 mb 0.00 in0.0 mm 0.00 in0.0 mm 0.00 in0.0 mm
09:20 AM 65.9°F18.8°C 47.2°F8.4°C 51% Calm Calm 9.0 mph14.5 kmh 29.73 in1006.8 mb 0.00 in0.0 mm 0.00 in0.0 mm 0.00 in0.0 mm
09:15 AM 65.4°F18.6°C 47.3°F8.5°C 52% 5.0 mph E8.0 kmh E 5.0 mph8.0 kmh 29.73 in1006.8 mb 0.00 in0.0 mm 0.00 in0.0 mm 0.00 in0.0 mm
09:10 AM 64.7°F18.2°C 46.1°F7.8°C 51% Calm Calm 3.0 mph4.8 kmh 29.73 in1006.8 mb 0.00 in0.0 mm 0.00 in0.0 mm 0.00 in0.0 mm
09:05 AM 64.2°F17.9°C 48.1°F8.9°C 56% 2.0 mph E3.2 kmh E 5.0 mph8.0 kmh 29.73 in1006.8 mb 0.00 in0.0 mm 0.00 in0.0 mm 0.00 in0.0 mm
09:00 AM 63.8°F17.7°C 47.3°F8.5°C 55% Calm Calm 4.0 mph6.4 kmh 29.73 in1006.8 mb 0.00 in0.0 mm 0.00 in0.0 mm 0.00 in0.0 mm
08:55 AM 63.5°F17.5°C 47.0°F8.3°C 55% Calm Calm -- 29.73 in1006.8 mb 0.00 in0.0 mm 0.00 in0.0 mm 0.00 in0.0 mm
08:50 AM 63.0°F17.2°C 46.5°F8.1°C 55% Calm Calm -- 29.73 in1006.8 mb 0.00 in0.0 mm 0.00 in0.0 mm 0.00 in0.0 mm
08:45 AM 62.3°F16.8°C 46.3°F7.9°C 56% Calm Calm 2.0 mph3.2 kmh 29.73 in1006.8 mb 0.00 in0.0 mm 0.00 in0.0 mm 0.00 in0.0 mm
08:40 AM 61.8°F16.6°C 46.8°F8.2°C 58% 1.0 mph NE1.6 kmh NE 4.0 mph6.4 kmh 29.73 in1006.8 mb 0.00 in0.0 mm 0.00 in0.0 mm 0.00 in0.0 mm
08:35 AM 61.4°F16.3°C 46.9°F8.3°C 59% Calm Calm 5.0 mph8.0 kmh 29.72 in1006.4 mb 0.00 in0.0 mm 0.00 in0.0 mm 0.00 in0.0 mm
08:30 AM 61.1°F16.2°C 46.6°F8.1°C 59% 1.0 mph NE1.6 kmh NE 4.0 mph6.4 kmh 29.72 in1006.4 mb 0.00 in0.0 mm 0.00 in0.0 mm 0.00 in0.0 mm
08:25 AM 60.8°F16.0°C 48.1°F8.9°C 63% Calm Calm 3.0 mph4.8 kmh 29.73 in1006.8 mb 0.00 in0.0 mm 0.00 in0.0 mm 0.00 in0.0 mm
08:20 AM 60.8°F16.0°C 47.2°F8.4°C 61% Calm Calm 3.0 mph4.8 kmh 29.73 in1006.8 mb 0.00 in0.0 mm 0.00 in0.0 mm 0.00 in0.0 mm
08:15 AM 60.9°F16.1°C 47.7°F8.7°C 62% 1.0 mph NE1.6 kmh NE 2.0 mph3.2 kmh 29.73 in1006.8 mb 0.00 in0.0 mm 0.00 in0.0 mm 0.00 in0.0 mm
08:10 AM 60.9°F16.1°C 47.3°F8.5°C 61% 1.0 mph NE1.6 kmh NE 4.0 mph6.4 kmh 29.73 in1006.8 mb 0.00 in0.0 mm 0.00 in0.0 mm 0.00 in0.0 mm
08:05 AM 60.9°F16.1°C 46.0°F7.8°C 58% 3.0 mph NE4.8 kmh NE 5.0 mph8.0 kmh 29.73 in1006.8 mb 0.00 in0.0 mm 0.00 in0.0 mm 0.00 in0.0 mm
08:00 AM 60.8°F16.0°C 46.3°F7.9°C 59% 2.0 mph NE3.2 kmh NE 4.0 mph6.4 kmh 29.73 in1006.8 mb 0.00 in0.0 mm 0.00 in0.0 mm 0.00 in0.0 mm
07:55 AM 60.7°F15.9°C 46.7°F8.2°C 60% 1.0 mph NE1.6 kmh NE 3.0 mph4.8 kmh 29.73 in1006.8 mb 0.00 in0.0 mm 0.00 in0.0 mm 0.00 in0.0 mm
07:50 AM 60.7°F15.9°C 46.7°F8.2°C 60% 1.0 mph NE1.6 kmh NE 4.0 mph6.4 kmh 29.73 in1006.8 mb 0.00 in0.0 mm 0.00 in0.0 mm 0.00 in0.0 mm
07:45 AM 60.5°F15.8°C 46.0°F7.8°C 59% 2.0 mph NE3.2 kmh NE 3.0 mph4.8 kmh 29.73 in1006.8 mb 0.00 in0.0 mm 0.00 in0.0 mm 0.00 in0.0 mm
07:40 AM 60.3°F15.7°C 45.9°F7.7°C 59% 1.0 mph NE1.6 kmh NE 3.0 mph4.8 kmh 29.73 in1006.8 mb 0.00 in0.0 mm 0.00 in0.0 mm 0.00 in0.0 mm
07:35 AM 60.0°F15.6°C 45.6°F7.6°C 59% 1.0 mph NE1.6 kmh NE 3.0 mph4.8 kmh 29.73 in1006.8 mb 0.00 in0.0 mm 0.00 in0.0 mm 0.00 in0.0 mm
07:30 AM 59.8°F15.4°C 45.4°F7.4°C 59% Calm Calm 3.0 mph4.8 kmh 29.72 in1006.4 mb 0.00 in0.0 mm 0.00 in0.0 mm 0.00 in0.0 mm
07:25 AM 59.5°F15.3°C 45.1°F7.3°C 59% Calm Calm 3.0 mph4.8 kmh 29.73 in1006.8 mb 0.00 in0.0 mm 0.00 in0.0 mm 0.00 in0.0 mm
07:20 AM 59.2°F15.1°C 44.8°F7.1°C 59% 1.0 mph NE1.6 kmh NE 3.0 mph4.8 kmh 29.73 in1006.8 mb 0.00 in0.0 mm 0.00 in0.0 mm 0.00 in0.0 mm
07:15 AM 59.0°F15.0°C 44.6°F7.0°C 59% 3.0 mph NE4.8 kmh NE 5.0 mph8.0 kmh 29.73 in1006.8 mb 0.00 in0.0 mm 0.00 in0.0 mm 0.00 in0.0 mm
07:10 AM 58.7°F14.8°C 43.5°F6.4°C 57% 1.0 mph NNE1.6 kmh NNE 5.0 mph8.0 kmh 29.72 in1006.4 mb 0.00 in0.0 mm 0.00 in0.0 mm 0.00 in0.0 mm
07:05 AM 58.5°F14.7°C 43.3°F6.3°C 57% Calm Calm 4.0 mph6.4 kmh 29.72 in1006.4 mb 0.00 in0.0 mm 0.00 in0.0 mm 0.00 in0.0 mm
07:00 AM 58.3°F14.6°C 43.1°F6.2°C 57% 4.0 mph NNE6.4 kmh NNE 5.0 mph8.0 kmh 29.72 in1006.4 mb 0.00 in0.0 mm 0.00 in0.0 mm 0.00 in0.0 mm
06:55 AM 58.3°F14.6°C 43.1°F6.2°C 57% 4.0 mph NE6.4 kmh NE 6.0 mph9.7 kmh 29.72 in1006.4 mb 0.00 in0.0 mm 0.00 in0.0 mm 0.00 in0.0 mm
06:50 AM 58.5°F14.7°C 43.3°F6.3°C 57% 3.0 mph NE4.8 kmh NE 5.0 mph8.0 kmh 29.72 in1006.4 mb 0.00 in0.0 mm 0.00 in0.0 mm 0.00 in0.0 mm
06:45 AM 58.9°F14.9°C 43.6°F6.4°C 57% 3.0 mph NE4.8 kmh NE 5.0 mph8.0 kmh 29.72 in1006.4 mb 0.00 in0.0 mm 0.00 in0.0 mm 0.00 in0.0 mm
06:40 AM 59.3°F15.2°C 43.1°F6.2°C 55% 2.0 mph NE3.2 kmh NE 4.0 mph6.4 kmh 29.71 in1006.1 mb 0.00 in0.0 mm 0.00 in0.0 mm 0.00 in0.0 mm
06:35 AM 59.8°F15.4°C 43.1°F6.2°C 54% 2.0 mph NE3.2 kmh NE 6.0 mph9.7 kmh 29.71 in1006.1 mb 0.00 in0.0 mm 0.00 in0.0 mm 0.00 in0.0 mm
06:30 AM 60.5°F15.8°C 42.7°F5.9°C 52% 3.0 mph NE4.8 kmh NE 5.0 mph8.0 kmh 29.71 in1006.1 mb 0.00 in0.0 mm 0.00 in0.0 mm 0.00 in0.0 mm
06:25 AM 61.3°F16.3°C 42.5°F5.8°C 50% 4.0 mph NE6.4 kmh NE 6.0 mph9.7 kmh 29.70 in1005.8 mb 0.00 in0.0 mm 0.00 in0.0 mm 0.00 in0.0 mm
06:20 AM 62.1°F16.7°C 42.1°F5.6°C 48% 4.0 mph ENE6.4 kmh ENE 5.0 mph8.0 kmh 29.70 in1005.8 mb 0.00 in0.0 mm 0.00 in0.0 mm 0.00 in0.0 mm
06:15 AM 62.5°F16.9°C 42.5°F5.8°C 48% 4.0 mph ENE6.4 kmh ENE 5.0 mph8.0 kmh 29.70 in1005.8 mb 0.00 in0.0 mm 0.00 in0.0 mm 0.00 in0.0 mm
06:10 AM 62.5°F16.9°C 40.8°F4.9°C 45% 2.0 mph NW3.2 kmh NW 6.0 mph9.7 kmh 29.70 in1005.8 mb 0.00 in0.0 mm 0.00 in0.0 mm 0.00 in0.0 mm
06:05 AM 62.4°F16.9°C 40.7°F4.8°C 45% 3.0 mph N4.8 kmh N 8.0 mph12.9 kmh 29.70 in1005.8 mb 0.00 in0.0 mm 0.00 in0.0 mm 0.00 in0.0 mm
06:00 AM 62.2°F16.8°C 41.1°F5.1°C 46% 5.0 mph 8.0 kmh 9.0 mph14.5 kmh 29.70 in1005.8 mb 0.00 in0.0 mm 0.00 in0.0 mm 0.00 in0.0 mm
05:55 AM 61.9°F16.6°C 40.8°F4.9°C 46% 8.0 mph NW12.9 kmh NW 10.0 mph16.1 kmh 29.70 in1005.8 mb 0.00 in0.0 mm 0.00 in0.0 mm 0.00 in0.0 mm
05:50 AM 61.5°F16.4°C 41.0°F5.0°C 47% 9.0 mph NW14.5 kmh NW 10.0 mph16.1 kmh 29.70 in1005.8 mb 0.00 in0.0 mm 0.00 in0.0 mm 0.00 in0.0 mm
05:45 AM 61.0°F16.1°C 40.6°F4.8°C 47% 3.0 mph NW4.8 kmh NW 8.0 mph12.9 kmh 29.70 in1005.8 mb 0.00 in0.0 mm 0.00 in0.0 mm 0.00 in0.0 mm
05:40 AM 60.8°F16.0°C 40.9°F4.9°C 48% 4.0 mph NW6.4 kmh NW 4.0 mph6.4 kmh 29.70 in1005.8 mb 0.00 in0.0 mm 0.00 in0.0 mm 0.00 in0.0 mm
05:35 AM 60.9°F16.1°C 41.0°F5.0°C 48% 1.0 mph WNW1.6 kmh WNW 6.0 mph9.7 kmh 29.70 in1005.8 mb 0.00 in0.0 mm 0.00 in0.0 mm 0.00 in0.0 mm
05:30 AM 61.1°F16.2°C 40.7°F4.8°C 47% 4.0 mph WNW6.4 kmh WNW 7.0 mph11.3 kmh 29.70 in1005.8 mb 0.00 in0.0 mm 0.00 in0.0 mm 0.00 in0.0 mm
05:25 AM 61.1°F16.2°C 40.7°F4.8°C 47% 5.0 mph NW8.0 kmh NW 6.0 mph9.7 kmh 29.70 in1005.8 mb 0.00 in0.0 mm 0.00 in0.0 mm 0.00 in0.0 mm
05:20 AM 61.2°F16.2°C 40.8°F4.9°C 47% 2.0 mph NW3.2 kmh NW 8.0 mph12.9 kmh 29.70 in1005.8 mb 0.00 in0.0 mm 0.00 in0.0 mm 0.00 in0.0 mm
05:15 AM 61.3°F16.3°C 40.8°F4.9°C 47% 2.0 mph NW3.2 kmh NW 10.0 mph16.1 kmh 29.70 in1005.8 mb 0.00 in0.0 mm 0.00 in0.0 mm 0.00 in0.0 mm
05:10 AM 61.1°F16.2°C 40.7°F4.8°C 47% 7.0 mph NW11.3 kmh NW 10.0 mph16.1 kmh 29.70 in1005.8 mb 0.00 in0.0 mm 0.00 in0.0 mm 0.00 in0.0 mm
05:05 AM 60.9°F16.1°C 40.5°F4.7°C 47% 4.0 mph WNW6.4 kmh WNW 7.0 mph11.3 kmh 29.70 in1005.8 mb 0.00 in0.0 mm 0.00 in0.0 mm 0.00 in0.0 mm
05:00 AM 61.0°F16.1°C 40.6°F4.8°C 47% 1.0 mph NW1.6 kmh NW 8.0 mph12.9 kmh 29.70 in1005.8 mb 0.00 in0.0 mm 0.00 in0.0 mm 0.00 in0.0 mm
04:55 AM 60.9°F16.1°C 40.5°F4.7°C 47% 3.0 mph NW4.8 kmh NW 9.0 mph14.5 kmh 29.70 in1005.8 mb 0.00 in0.0 mm 0.00 in0.0 mm 0.00 in0.0 mm
04:50 AM 60.8°F16.0°C 40.4°F4.7°C 47% 5.0 mph NW8.0 kmh NW 8.0 mph12.9 kmh 29.70 in1005.8 mb 0.00 in0.0 mm 0.00 in0.0 mm 0.00 in0.0 mm
04:45 AM 61.0°F16.1°C 40.6°F4.8°C 47% 2.0 mph NW3.2 kmh NW 8.0 mph12.9 kmh 29.70 in1005.8 mb 0.00 in0.0 mm 0.00 in0.0 mm 0.00 in0.0 mm
04:40 AM 61.3°F16.3°C 40.8°F4.9°C 47% 4.0 mph NW6.4 kmh NW 9.0 mph14.5 kmh 29.69 in1005.4 mb 0.00 in0.0 mm 0.00 in0.0 mm 0.00 in0.0 mm
04:35 AM 61.5°F16.4°C 40.5°F4.7°C 46% 5.0 mph NW8.0 kmh NW 10.0 mph16.1 kmh 29.69 in1005.4 mb 0.00 in0.0 mm 0.00 in0.0 mm 0.00 in0.0 mm
04:30 AM 61.9°F16.6°C 40.3°F4.6°C 45% 6.0 mph NW9.7 kmh NW 9.0 mph14.5 kmh 29.69 in1005.4 mb 0.00 in0.0 mm 0.00 in0.0 mm 0.00 in0.0 mm
04:25 AM 62.0°F16.7°C 40.4°F4.7°C 45% 6.0 mph NNW9.7 kmh NNW 10.0 mph16.1 kmh 29.69 in1005.4 mb 0.00 in0.0 mm 0.00 in0.0 mm 0.00 in0.0 mm
04:20 AM 62.1°F16.7°C 40.5°F4.7°C 45% 3.0 mph NW4.8 kmh NW 8.0 mph12.9 kmh 29.69 in1005.4 mb 0.00 in0.0 mm 0.00 in0.0 mm 0.00 in0.0 mm
04:15 AM 62.0°F16.7°C 40.4°F4.7°C 45% 4.0 mph NW6.4 kmh NW 6.0 mph9.7 kmh 29.69 in1005.4 mb 0.00 in0.0 mm 0.00 in0.0 mm 0.00 in0.0 mm
04:10 AM 61.7°F16.5°C 40.7°F4.8°C 46% 4.0 mph NW6.4 kmh NW 6.0 mph9.7 kmh 29.69 in1005.4 mb 0.00 in0.0 mm 0.00 in0.0 mm 0.00 in0.0 mm
04:05 AM 61.4°F16.3°C 40.4°F4.7°C 46% 4.0 mph NW6.4 kmh NW 6.0 mph9.7 kmh 29.69 in1005.4 mb 0.00 in0.0 mm 0.00 in0.0 mm 0.00 in0.0 mm
04:00 AM 61.3°F16.3°C 40.8°F4.9°C 47% 3.0 mph NNW4.8 kmh NNW 5.0 mph8.0 kmh 29.69 in1005.4 mb 0.00 in0.0 mm 0.00 in0.0 mm 0.00 in0.0 mm
03:55 AM 61.5°F16.4°C 40.5°F4.7°C 46% 5.0 mph N8.0 kmh N 5.0 mph8.0 kmh 29.69 in1005.4 mb 0.00 in0.0 mm 0.00 in0.0 mm 0.00 in0.0 mm
03:50 AM 61.5°F16.4°C 40.5°F4.7°C 46% 1.0 mph N1.6 kmh N 5.0 mph8.0 kmh 29.68 in1005.1 mb 0.00 in0.0 mm 0.00 in0.0 mm 0.00 in0.0 mm
03:45 AM 61.6°F16.4°C 40.6°F4.8°C 46% 4.0 mph N6.4 kmh N 5.0 mph8.0 kmh 29.69 in1005.4 mb 0.00 in0.0 mm 0.00 in0.0 mm 0.00 in0.0 mm
03:40 AM 61.8°F16.6°C 40.7°F4.8°C 46% 4.0 mph N6.4 kmh N 8.0 mph12.9 kmh 29.69 in1005.4 mb 0.00 in0.0 mm 0.00 in0.0 mm 0.00 in0.0 mm
03:35 AM 62.1°F16.7°C 41.0°F5.0°C 46% 1.0 mph NNE1.6 kmh NNE 5.0 mph8.0 kmh 29.69 in1005.4 mb 0.00 in0.0 mm 0.00 in0.0 mm 0.00 in0.0 mm
03:30 AM 62.2°F16.8°C 40.5°F4.7°C 45% 3.0 mph NW4.8 kmh NW 9.0 mph14.5 kmh 29.69 in1005.4 mb 0.00 in0.0 mm 0.00 in0.0 mm 0.00 in0.0 mm
03:25 AM 61.8°F16.6°C 40.7°F4.8°C 46% 6.0 mph NNW9.7 kmh NNW 13.0 mph20.9 kmh 29.69 in1005.4 mb 0.00 in0.0 mm 0.00 in0.0 mm 0.00 in0.0 mm
03:20 AM 61.3°F16.3°C 40.8°F4.9°C 47% 9.0 mph NW14.5 kmh NW 10.0 mph16.1 kmh 29.69 in1005.4 mb 0.00 in0.0 mm 0.00 in0.0 mm 0.00 in0.0 mm
03:15 AM 61.2°F16.2°C 41.3°F5.2°C 48% 8.0 mph NW12.9 kmh NW 9.0 mph14.5 kmh 29.69 in1005.4 mb 0.00 in0.0 mm 0.00 in0.0 mm 0.00 in0.0 mm
03:10 AM 61.1°F16.2°C 40.7°F4.8°C 47% 2.0 mph WNW3.2 kmh WNW 9.0 mph14.5 kmh 29.69 in1005.4 mb 0.00 in0.0 mm 0.00 in0.0 mm 0.00 in0.0 mm
03:05 AM 61.0°F16.1°C 41.1°F5.1°C 48% 3.0 mph NW4.8 kmh NW 9.0 mph14.5 kmh 29.69 in1005.4 mb 0.00 in0.0 mm 0.00 in0.0 mm 0.00 in0.0 mm
03:00 AM 61.1°F16.2°C 41.2°F5.1°C 48% 3.0 mph WNW4.8 kmh WNW 11.0 mph17.7 kmh 29.69 in1005.4 mb 0.00 in0.0 mm 0.00 in0.0 mm 0.00 in0.0 mm
02:55 AM 60.9°F16.1°C 41.0°F5.0°C 48% 6.0 mph NW9.7 kmh NW 11.0 mph17.7 kmh 29.69 in1005.4 mb 0.00 in0.0 mm 0.00 in0.0 mm 0.00 in0.0 mm
02:50 AM 60.4°F15.8°C 41.1°F5.1°C 49% 7.0 mph NW11.3 kmh NW 10.0 mph16.1 kmh 29.69 in1005.4 mb 0.00 in0.0 mm 0.00 in0.0 mm 0.00 in0.0 mm
02:45 AM 59.7°F15.4°C 41.0°F5.0°C 50% 10.0 mph N16.1 kmh N 8.0 mph12.9 kmh 29.69 in1005.4 mb 0.00 in0.0 mm 0.00 in0.0 mm 0.00 in0.0 mm
02:40 AM 59.3°F15.2°C 41.1°F5.1°C 51% 1.0 mph NW1.6 kmh NW 5.0 mph8.0 kmh 29.69 in1005.4 mb 0.00 in0.0 mm 0.00 in0.0 mm 0.00 in0.0 mm
02:35 AM 59.0°F15.0°C 40.8°F4.9°C 51% 1.0 mph WSW1.6 kmh WSW 4.0 mph6.4 kmh 29.69 in1005.4 mb 0.00 in0.0 mm 0.00 in0.0 mm 0.00 in0.0 mm
02:30 AM 59.1°F15.1°C 41.4°F5.2°C 52% 3.0 mph SW4.8 kmh SW 6.0 mph9.7 kmh 29.70 in1005.8 mb 0.00 in0.0 mm 0.00 in0.0 mm 0.00 in0.0 mm
02:25 AM 59.0°F15.0°C 41.3°F5.2°C 52% 2.0 mph W3.2 kmh W 3.0 mph4.8 kmh 29.70 in1005.8 mb 0.00 in0.0 mm 0.00 in0.0 mm 0.00 in0.0 mm
02:20 AM 58.5°F14.7°C 40.9°F4.9°C 52% 1.0 mph NW1.6 kmh NW 4.0 mph6.4 kmh 29.70 in1005.8 mb 0.00 in0.0 mm 0.00 in0.0 mm 0.00 in0.0 mm
02:15 AM 57.9°F14.4°C 40.8°F4.9°C 53% Calm Calm 5.0 mph8.0 kmh 29.71 in1006.1 mb 0.00 in0.0 mm 0.00 in0.0 mm 0.00 in0.0 mm
02:10 AM 57.8°F14.3°C 41.7°F5.4°C 55% Calm Calm 2.0 mph3.2 kmh 29.71 in1006.1 mb 0.00 in0.0 mm 0.00 in0.0 mm 0.00 in0.0 mm
02:05 AM 58.1°F14.5°C 42.4°F5.8°C 56% Calm Calm 4.0 mph6.4 kmh 29.71 in1006.1 mb 0.00 in0.0 mm 0.00 in0.0 mm 0.00 in0.0 mm
02:00 AM 58.6°F14.8°C 43.4°F6.3°C 57% Calm Calm -- 29.71 in1006.1 mb 0.00 in0.0 mm 0.00 in0.0 mm 0.00 in0.0 mm
01:55 AM 59.0°F15.0°C 43.3°F6.3°C 56% Calm Calm -- 29.71 in1006.1 mb 0.00 in0.0 mm 0.00 in0.0 mm 0.00 in0.0 mm
01:50 AM 59.2°F15.1°C 43.0°F6.1°C 55% Calm Calm -- 29.71 in1006.1 mb 0.00 in0.0 mm 0.00 in0.0 mm 0.00 in0.0 mm
01:45 AM 59.4°F15.2°C 42.7°F5.9°C 54% Calm Calm -- 29.71 in1006.1 mb 0.00 in0.0 mm 0.00 in0.0 mm 0.00 in0.0 mm
01:40 AM 59.4°F15.2°C 42.7°F5.9°C 54% Calm Calm -- 29.71 in1006.1 mb 0.00 in0.0 mm 0.00 in0.0 mm 0.00 in0.0 mm
01:35 AM 59.3°F15.2°C 42.6°F5.9°C 54% Calm Calm -- 29.71 in1006.1 mb 0.00 in0.0 mm 0.00 in0.0 mm 0.00 in0.0 mm
01:30 AM 59.1°F15.1°C 42.9°F6.1°C 55% Calm Calm -- 29.71 in1006.1 mb 0.00 in0.0 mm 0.00 in0.0 mm 0.00 in0.0 mm
01:25 AM 58.9°F14.9°C 42.7°F5.9°C 55% Calm Calm -- 29.71 in1006.1 mb 0.00 in0.0 mm 0.00 in0.0 mm 0.00 in0.0 mm
01:20 AM 58.5°F14.7°C 42.8°F6.0°C 56% Calm Calm -- 29.71 in1006.1 mb 0.00 in0.0 mm 0.00 in0.0 mm 0.00 in0.0 mm
01:15 AM 58.1°F14.5°C 43.3°F6.3°C 58% Calm Calm -- 29.71 in1006.1 mb 0.00 in0.0 mm 0.00 in0.0 mm 0.00 in0.0 mm
01:10 AM 57.8°F14.3°C 44.0°F6.7°C 60% Calm Calm 1.0 mph1.6 kmh 29.71 in1006.1 mb 0.00 in0.0 mm 0.00 in0.0 mm 0.00 in0.0 mm
01:05 AM 57.7°F14.3°C 44.3°F6.8°C 61% 2.0 mph SW3.2 kmh SW 3.0 mph4.8 kmh 29.71 in1006.1 mb 0.00 in0.0 mm 0.00 in0.0 mm 0.00 in0.0 mm
01:00 AM 57.7°F14.3°C 44.7°F7.1°C 62% Calm Calm 4.0 mph6.4 kmh 29.71 in1006.1 mb 0.00 in0.0 mm 0.00 in0.0 mm 0.00 in0.0 mm
12:55 AM 57.3°F14.1°C 44.3°F6.8°C 62% 4.0 mph SW6.4 kmh SW 5.0 mph8.0 kmh 29.71 in1006.1 mb 0.00 in0.0 mm 0.00 in0.0 mm 0.00 in0.0 mm
12:50 AM 57.1°F13.9°C 45.0°F7.2°C 64% Calm Calm 4.0 mph6.4 kmh 29.72 in1006.4 mb 0.00 in0.0 mm 0.00 in0.0 mm 0.00 in0.0 mm
12:45 AM 57.2°F14.0°C 45.1°F7.3°C 64% 2.0 mph SW3.2 kmh SW 8.0 mph12.9 kmh 29.72 in1006.4 mb 0.00 in0.0 mm 0.00 in0.0 mm 0.00 in0.0 mm
12:40 AM 57.3°F14.1°C 45.2°F7.3°C 64% 4.0 mph SW6.4 kmh SW 6.0 mph9.7 kmh 29.72 in1006.4 mb 0.00 in0.0 mm 0.00 in0.0 mm 0.00 in0.0 mm
12:35 AM 57.3°F14.1°C 45.2°F7.3°C 64% 5.0 mph WSW8.0 kmh WSW 9.0 mph14.5 kmh 29.72 in1006.4 mb 0.00 in0.0 mm 0.00 in0.0 mm 0.00 in0.0 mm
12:30 AM 57.3°F14.1°C 45.2°F7.3°C 64% 5.0 mph SW8.0 kmh SW 7.0 mph11.3 kmh 29.72 in1006.4 mb 0.00 in0.0 mm 0.00 in0.0 mm 0.00 in0.0 mm
12:25 AM 57.1°F13.9°C 45.4°F7.4°C 65% 3.0 mph SW4.8 kmh SW 9.0 mph14.5 kmh 29.73 in1006.8 mb 0.00 in0.0 mm 0.00 in0.0 mm 0.00 in0.0 mm
12:20 AM 56.4°F13.6°C 45.1°F7.3°C 66% 4.0 mph SW6.4 kmh SW 7.0 mph11.3 kmh 29.72 in1006.4 mb 0.00 in0.0 mm 0.00 in0.0 mm 0.00 in0.0 mm
12:15 AM 56.0°F13.3°C 45.5°F7.5°C 68% 2.0 mph S3.2 kmh S 6.0 mph9.7 kmh 29.73 in1006.8 mb 0.00 in0.0 mm 0.00 in0.0 mm 0.00 in0.0 mm
12:10 AM 55.8°F13.2°C 46.1°F7.8°C 70% Calm Calm -- 29.73 in1006.8 mb 0.00 in0.0 mm 0.00 in0.0 mm 0.00 in0.0 mm
12:05 AM 55.7°F13.2°C 46.0°F7.8°C 70% Calm Calm 2.0 mph3.2 kmh 29.73 in1006.8 mb 0.00 in0.0 mm 0.00 in0.0 mm 0.00 in0.0 mm
12:00 AM 55.8°F13.2°C 46.1°F7.8°C 70% 3.0 mph SW4.8 kmh SW 5.0 mph8.0 kmh 29.74 in1007.1 mb 0.00 in0.0 mm 0.00 in0.0 mm 0.04 in1.0 mm